1IL0 weather

Barnstorm Field
El Paso, Illinois, United States

Public forecast

Using degrees Fahrenheit for public forecast. Weather courtesy of forecast.io.

Closest aviation weather report (METAR) to Barnstorm Field

Closest report is Central Illinois Regional Airport at Bloomington-Normal, 18.3 nm (33.9 km) SSE. Retrieved 2019/12/09 18:11 UTC (0 seconds ago):

KBMI 091811Z 24012KT 2SM BR OVC006 09/08 A2953 RMK AO2

Closest aviation forecast (TAF) to Barnstorm Field

Closest forecast is Central Illinois Regional Airport at Bloomington-Normal, 18.3 nm (33.9 km) SSE. Retrieved 2019/12/09 18:42 UTC (0 seconds ago):

TAF KBMI 091741Z 0918/1018 23012KT 2SM -DZ BR OVC004 FM092200 26018G30KT P6SM OVC008 FM100000 29017G28KT P6SM OVC014 FM100400 29015G25KT P6SM SCT040 FM101200 29012KT P6SM SCT250